createdAt,value
2023-04-16T00:01:41.543Z,23.30
2023-04-16T00:04:09.447Z,22.37
2023-04-16T00:06:37.331Z,23.87
2023-04-16T00:09:05.151Z,18.87
2023-04-16T00:11:32.857Z,23.50
2023-04-16T00:14:00.568Z,23.43
2023-04-16T00:16:28.807Z,23.37
2023-04-16T00:18:57.917Z,24.47
2023-04-16T00:21:26.374Z,21.23
2023-04-16T00:23:54.721Z,21.47
2023-04-16T00:26:22.449Z,24.17
2023-04-16T00:28:50.196Z,21.90
2023-04-16T00:31:18.230Z,25.10
2023-04-16T00:33:45.949Z,22.53
2023-04-16T00:36:15.154Z,23.70
2023-04-16T00:38:42.893Z,22.53
2023-04-16T00:41:10.780Z,22.17
2023-04-16T00:43:38.650Z,27.47
2023-04-16T00:46:07.854Z,22.93
2023-04-16T00:48:36.328Z,24.13
2023-04-16T00:51:06.447Z,25.77
2023-04-16T00:53:36.467Z,23.13
2023-04-16T00:56:05.258Z,24.23
2023-04-16T00:58:33.896Z,26.13
2023-04-16T01:01:02.342Z,23.33
2023-04-16T01:03:38.566Z,24.63
2023-04-16T01:06:07.268Z,25.73
2023-04-16T01:08:36.568Z,28.80
2023-04-16T01:11:04.815Z,24.73
2023-04-16T01:13:33.549Z,23.53
2023-04-16T01:16:02.415Z,23.00
2023-04-16T01:18:30.167Z,23.70
2023-04-16T01:20:59.497Z,22.80
2023-04-16T01:23:27.456Z,23.67
2023-04-16T01:25:55.236Z,24.40
2023-04-16T01:28:23.676Z,24.47
2023-04-16T01:30:51.789Z,23.47
2023-04-16T01:33:20.419Z,25.87
2023-04-16T01:35:48.182Z,24.23
2023-04-16T01:38:17.721Z,26.40
2023-04-16T01:40:45.552Z,26.03
2023-04-16T01:43:13.311Z,25.93
2023-04-16T01:45:41.100Z,27.93
2023-04-16T01:48:09.998Z,23.80
2023-04-16T01:50:38.461Z,26.13
2023-04-16T01:53:06.190Z,28.67
2023-04-16T01:55:35.541Z,29.60
2023-04-16T01:58:03.273Z,28.77
2023-04-16T02:00:31.095Z,27.00
2023-04-16T02:02:59.217Z,27.67
2023-04-16T02:05:27.329Z,28.83
2023-04-16T02:07:55.155Z,28.97
2023-04-16T02:10:23.424Z,28.33
2023-04-16T02:12:52.580Z,24.87
2023-04-16T02:15:20.421Z,30.33
2023-04-16T02:17:48.889Z,25.37
2023-04-16T02:20:17.733Z,29.23
2023-04-16T02:22:45.504Z,28.80
2023-04-16T02:25:14.245Z,27.60
2023-04-16T02:27:43.328Z,28.30
2023-04-16T02:30:13.505Z,30.40
2023-04-16T02:32:41.278Z,30.43
2023-04-16T02:35:09.195Z,27.90
2023-04-16T02:37:37.122Z,27.93
2023-04-16T02:40:05.311Z,29.63
2023-04-16T02:42:33.095Z,29.80
2023-04-16T02:45:00.813Z,28.47
2023-04-16T02:47:29.973Z,31.00
2023-04-16T02:49:57.672Z,29.00
2023-04-16T02:52:25.444Z,29.03
2023-04-16T02:54:53.180Z,28.57
2023-04-16T02:57:20.943Z,27.53
2023-04-16T02:59:48.647Z,28.67
2023-04-16T03:02:16.684Z,29.43
2023-04-16T03:04:46.005Z,29.07
2023-04-16T03:07:13.757Z,27.93
2023-04-16T03:09:41.844Z,27.67
2023-04-16T03:12:09.627Z,25.17
2023-04-16T03:14:37.544Z,32.80
2023-04-16T03:17:05.673Z,29.93
2023-04-16T03:19:33.774Z,32.27
2023-04-16T03:22:02.937Z,33.30
2023-04-16T03:24:30.622Z,33.87
2023-04-16T03:26:58.653Z,34.37
2023-04-16T03:29:26.803Z,36.30
2023-04-16T03:31:54.899Z,35.03
2023-04-16T03:34:22.683Z,39.83
2023-04-16T03:36:50.534Z,38.27
2023-04-16T03:39:19.638Z,38.33
2023-04-16T03:41:50.588Z,35.53
2023-04-16T03:44:18.294Z,40.80
2023-04-16T03:46:46.047Z,36.03
2023-04-16T03:49:13.816Z,38.00
2023-04-16T03:51:41.510Z,40.70
2023-04-16T03:54:09.371Z,40.70
2023-04-16T03:56:38.551Z,40.33
2023-04-16T03:59:06.286Z,37.87
2023-04-16T04:01:34.141Z,41.27
2023-04-16T04:04:02.371Z,40.97
2023-04-16T04:06:30.819Z,40.60
2023-04-16T04:08:58.540Z,36.73
2023-04-16T04:11:26.314Z,41.43
2023-04-16T04:13:55.445Z,39.33
2023-04-16T04:16:23.249Z,40.87
2023-04-16T04:18:51.024Z,38.93
2023-04-16T04:21:18.866Z,39.50
2023-04-16T04:23:46.603Z,44.13
2023-04-16T04:26:14.472Z,41.07
2023-04-16T04:28:42.169Z,38.93
2023-04-16T04:31:11.638Z,40.80
2023-04-16T04:33:40.596Z,40.03
2023-04-16T04:36:08.917Z,38.97
2023-04-16T04:38:36.843Z,40.70
2023-04-16T04:41:04.603Z,42.43
2023-04-16T04:43:32.428Z,37.90
2023-04-16T04:46:00.459Z,37.33
2023-04-16T04:48:29.569Z,34.80
2023-04-16T04:50:57.261Z,40.03
2023-04-16T04:53:25.130Z,40.90
2023-04-16T04:55:55.641Z,41.17
2023-04-16T04:58:26.396Z,38.73
2023-04-16T05:00:54.187Z,37.60
2023-04-16T05:03:22.705Z,37.47
2023-04-16T05:05:51.900Z,39.00
2023-04-16T05:08:19.640Z,41.47
2023-04-16T05:10:47.353Z,36.83
2023-04-16T05:13:15.083Z,39.87
2023-04-16T05:15:42.784Z,38.97
2023-04-16T05:18:10.496Z,38.43
2023-04-16T05:20:38.818Z,43.27
2023-04-16T05:23:07.873Z,39.17
2023-04-16T05:25:35.846Z,36.40
2023-04-16T05:28:03.750Z,37.57
2023-04-16T05:30:31.458Z,41.33
2023-04-16T05:32:59.352Z,38.93
2023-04-16T05:35:27.717Z,35.43
2023-04-16T05:37:55.456Z,37.33
2023-04-16T05:40:24.690Z,42.30
2023-04-16T05:42:52.392Z,48.87
2023-04-16T05:45:20.317Z,41.97
2023-04-16T05:47:48.068Z,37.70
2023-04-16T05:50:16.216Z,39.27
2023-04-16T05:52:43.970Z,44.57
2023-04-16T05:55:11.704Z,35.27
2023-04-16T05:57:40.825Z,36.03
2023-04-16T06:00:09.413Z,37.07
2023-04-16T06:02:37.388Z,35.13
2023-04-16T06:05:05.744Z,34.80
2023-04-16T06:07:33.578Z,47.80
2023-04-16T06:10:01.241Z,34.43
2023-04-16T06:12:28.910Z,39.70
2023-04-16T06:14:58.123Z,37.20
2023-04-16T06:17:27.088Z,34.43
2023-04-16T06:19:54.826Z,37.13
2023-04-16T06:22:22.658Z,32.53
2023-04-16T06:24:50.552Z,31.43
2023-04-16T06:27:18.360Z,34.50
2023-04-16T06:29:46.161Z,34.87
2023-04-16T06:32:17.101Z,38.10
2023-04-16T06:34:44.990Z,37.30
2023-04-16T06:37:12.779Z,37.83
2023-04-16T06:39:40.657Z,37.07
2023-04-16T06:42:08.627Z,36.30
2023-04-16T06:44:36.983Z,35.43
2023-04-16T06:47:04.795Z,30.97
2023-04-16T06:49:34.076Z,32.33
2023-04-16T06:52:03.862Z,34.43
2023-04-16T06:54:32.988Z,29.47
2023-04-16T06:57:00.717Z,37.60
2023-04-16T06:59:28.450Z,34.13
2023-04-16T07:01:56.353Z,34.30
2023-04-16T07:04:24.759Z,33.57
2023-04-16T07:06:53.931Z,35.50
2023-04-16T07:09:21.957Z,34.30
2023-04-16T07:11:50.209Z,35.63
2023-04-16T07:14:18.142Z,38.03
2023-04-16T07:16:46.100Z,29.03
2023-04-16T07:19:14.009Z,32.60
2023-04-16T07:21:43.693Z,32.13
2023-04-16T07:24:12.885Z,29.90
2023-04-16T07:26:40.689Z,34.00
2023-04-16T07:29:08.671Z,29.60
2023-04-16T07:31:36.657Z,28.33
2023-04-16T07:34:04.705Z,27.93
2023-04-16T07:36:32.491Z,27.50
2023-04-16T07:39:00.176Z,28.23
2023-04-16T07:41:30.539Z,25.17
2023-04-16T07:43:58.734Z,32.27
2023-04-16T07:46:30.437Z,25.60
2023-04-16T07:49:03.955Z,28.10
2023-04-16T07:51:32.153Z,22.67
2023-04-16T07:53:59.846Z,26.30
2023-04-16T07:56:28.945Z,26.60
2023-04-16T07:58:57.426Z,24.70
2023-04-16T08:01:27.701Z,26.03
2023-04-16T08:03:55.524Z,27.17
2023-04-16T08:06:23.479Z,28.00
2023-04-16T08:08:51.253Z,23.83
2023-04-16T08:11:19.220Z,27.77
2023-04-16T08:13:48.529Z,24.93
2023-04-16T08:16:16.443Z,27.53
2023-04-16T08:18:44.253Z,26.27
2023-04-16T08:21:12.020Z,27.67
2023-04-16T08:23:39.877Z,25.97
2023-04-16T08:26:07.711Z,27.73
2023-04-16T08:28:35.661Z,25.33
2023-04-16T08:31:04.921Z,29.30
2023-04-16T08:33:32.785Z,24.67
2023-04-16T08:36:00.669Z,27.70
2023-04-16T08:38:28.337Z,24.47
2023-04-16T08:40:57.815Z,26.27
2023-04-16T08:43:26.983Z,27.20
2023-04-16T08:45:57.006Z,23.23
2023-04-16T08:48:26.356Z,26.00
2023-04-16T08:50:55.612Z,24.23
2023-04-16T08:53:34.073Z,23.93
2023-04-16T08:56:05.420Z,27.07
2023-04-16T08:58:35.616Z,23.87
2023-04-16T09:01:04.819Z,25.00
2023-04-16T09:03:36.316Z,24.73
2023-04-16T09:06:05.834Z,26.20
2023-04-16T09:08:33.641Z,23.90
2023-04-16T09:11:01.422Z,23.23
2023-04-16T09:13:29.780Z,28.10
2023-04-16T09:15:58.560Z,30.13
2023-04-16T09:18:28.096Z,24.50
2023-04-16T09:20:57.529Z,25.27
2023-04-16T09:23:26.266Z,26.07
2023-04-16T09:25:54.036Z,28.50
2023-04-16T09:28:40.944Z,26.93
2023-04-16T09:31:10.185Z,23.00
2023-04-16T09:33:38.003Z,24.57
2023-04-16T09:36:07.851Z,22.57
2023-04-16T09:38:48.664Z,22.63
2023-04-16T09:41:17.419Z,23.67
2023-04-16T09:43:56.035Z,21.40
2023-04-16T09:46:24.323Z,22.90
2023-04-16T09:48:52.214Z,21.37
2023-04-16T09:51:21.499Z,24.37
2023-04-16T09:53:53.630Z,22.03
2023-04-16T09:56:25.878Z,22.13
2023-04-16T09:58:58.245Z,22.67
2023-04-16T10:01:26.450Z,24.87
2023-04-16T10:03:56.078Z,24.03
2023-04-16T10:06:27.164Z,20.17
2023-04-16T10:08:57.301Z,22.63
2023-04-16T10:11:25.804Z,23.43
2023-04-16T10:13:53.529Z,23.57
2023-04-16T10:16:23.073Z,27.00
2023-04-16T10:18:50.930Z,24.63
2023-04-16T10:21:18.874Z,26.30
2023-04-16T10:23:49.574Z,22.50
2023-04-16T10:26:19.432Z,24.00
2023-04-16T10:28:47.168Z,22.00
2023-04-16T10:31:15.713Z,24.13
2023-04-16T10:33:45.319Z,24.40
2023-04-16T10:36:14.673Z,24.57
2023-04-16T10:38:46.709Z,25.40
2023-04-16T10:41:16.237Z,27.47
2023-04-16T10:43:45.668Z,25.37
2023-04-16T10:46:24.472Z,25.80
2023-04-16T10:48:55.274Z,27.97
2023-04-16T10:51:28.990Z,27.73
2023-04-16T10:53:58.035Z,28.70
2023-04-16T10:56:28.132Z,26.13
2023-04-16T10:58:56.868Z,28.53
2023-04-16T11:01:32.276Z,27.67
2023-04-16T11:04:02.809Z,23.93
2023-04-16T11:06:31.964Z,25.77
2023-04-16T11:08:59.720Z,26.90
2023-04-16T11:11:39.238Z,26.27
2023-04-16T11:14:09.769Z,24.23
2023-04-16T11:16:41.875Z,24.03
2023-04-16T11:19:16.345Z,22.63
2023-04-16T11:21:46.256Z,28.17
2023-04-16T11:24:13.942Z,26.97
2023-04-16T11:26:43.008Z,25.67
2023-04-16T11:29:15.599Z,23.30
2023-04-16T11:31:43.410Z,22.80
2023-04-16T11:34:11.343Z,25.73
2023-04-16T11:36:44.481Z,25.63
2023-04-16T11:39:12.529Z,21.07
2023-04-16T11:41:45.952Z,25.13
2023-04-16T11:44:24.687Z,22.40
2023-04-16T11:46:53.463Z,20.53
2023-04-16T11:49:28.834Z,21.57
2023-04-16T11:51:56.759Z,21.63
2023-04-16T11:54:25.721Z,24.30
2023-04-16T11:56:54.819Z,19.90
2023-04-16T11:59:24.076Z,17.70
2023-04-16T12:01:53.140Z,19.17
2023-04-16T12:04:22.699Z,16.23
2023-04-16T12:07:07.295Z,17.53
2023-04-16T12:09:39.341Z,17.47
2023-04-16T12:12:26.294Z,17.57
2023-04-16T12:14:54.572Z,17.00
2023-04-16T12:17:22.703Z,19.33
2023-04-16T12:19:51.816Z,18.77
2023-04-16T12:22:27.718Z,17.53
2023-04-16T12:24:59.145Z,20.57
2023-04-16T12:27:42.295Z,18.63
2023-04-16T12:30:11.362Z,16.90
2023-04-16T12:32:39.141Z,20.13
2023-04-16T12:35:07.387Z,19.67
2023-04-16T12:37:35.368Z,18.50
2023-04-16T12:40:04.732Z,20.70
2023-04-16T12:42:36.646Z,16.43
2023-04-16T12:45:05.297Z,16.13
2023-04-16T12:47:33.489Z,14.80
2023-04-16T12:50:01.609Z,17.53
2023-04-16T12:52:29.583Z,16.60
2023-04-16T12:54:57.416Z,14.93
2023-04-16T12:57:28.666Z,16.70
2023-04-16T12:59:58.075Z,16.93
2023-04-16T13:02:26.666Z,16.13
2023-04-16T13:04:55.017Z,14.47
2023-04-16T13:07:24.095Z,14.23
2023-04-16T13:09:52.048Z,14.43
2023-04-16T13:12:19.954Z,13.53
2023-04-16T13:14:47.825Z,14.57
2023-04-16T13:17:17.012Z,14.03
2023-04-16T13:19:45.710Z,14.30
2023-04-16T13:22:14.047Z,16.13
2023-04-16T13:24:41.863Z,14.30
2023-04-16T13:27:10.026Z,13.77
2023-04-16T13:29:37.736Z,13.43
2023-04-16T13:32:06.205Z,16.67
2023-04-16T13:34:35.802Z,16.73
2023-04-16T13:37:03.616Z,13.60
2023-04-16T13:39:31.416Z,15.10
2023-04-16T13:41:59.359Z,14.43
2023-04-16T13:44:27.146Z,13.57
2023-04-16T13:46:55.213Z,14.83
2023-04-16T13:49:23.483Z,14.87
2023-04-16T13:51:52.661Z,12.50
2023-04-16T13:54:20.547Z,13.23
2023-04-16T13:56:48.416Z,14.07
2023-04-16T13:59:16.693Z,13.50
2023-04-16T14:01:44.691Z,17.57
2023-04-16T14:04:12.712Z,14.93
2023-04-16T14:06:40.543Z,15.30
2023-04-16T14:09:10.869Z,13.97
2023-04-16T14:11:39.033Z,13.93
2023-04-16T14:14:09.950Z,13.63
2023-04-16T14:16:37.771Z,16.50
2023-04-16T14:19:05.759Z,11.83
2023-04-16T14:21:33.633Z,14.43
2023-04-16T14:24:01.378Z,12.97
2023-04-16T14:26:31.721Z,13.07
2023-04-16T14:28:59.668Z,14.37
2023-04-16T14:31:27.773Z,12.37
2023-04-16T14:33:55.791Z,12.07
2023-04-16T14:36:23.641Z,11.93
2023-04-16T14:38:51.547Z,13.33
2023-04-16T14:41:19.352Z,10.47
2023-04-16T14:43:48.727Z,11.17
2023-04-16T14:46:17.659Z,10.83
2023-04-16T14:48:46.210Z,11.23
2023-04-16T14:51:14.012Z,10.70
2023-04-16T14:53:41.891Z,10.27
2023-04-16T14:56:09.677Z,10.37
2023-04-16T14:58:39.383Z,9.97
2023-04-16T15:01:08.910Z,10.77
2023-04-16T15:03:37.000Z,13.20
2023-04-16T15:06:05.864Z,10.03
2023-04-16T15:08:37.604Z,9.37
2023-04-16T15:11:05.816Z,9.17
2023-04-16T15:13:34.642Z,11.27
2023-04-16T15:16:02.782Z,9.30
2023-04-16T15:18:33.056Z,10.37
2023-04-16T15:21:00.768Z,8.33
2023-04-16T15:23:28.514Z,12.80
2023-04-16T15:25:56.340Z,9.50
2023-04-16T15:28:24.128Z,10.10
2023-04-16T15:30:53.075Z,9.50
2023-04-16T15:33:22.272Z,9.40
2023-04-16T15:35:52.442Z,9.33
2023-04-16T15:38:21.226Z,10.07
2023-04-16T15:40:49.065Z,9.63
2023-04-16T15:43:17.026Z,11.07
2023-04-16T15:45:44.815Z,10.87
2023-04-16T15:48:12.643Z,9.80
2023-04-16T15:50:40.770Z,11.30
2023-04-16T15:53:09.993Z,9.93
2023-04-16T15:55:38.160Z,12.00
2023-04-16T15:58:06.058Z,9.60
2023-04-16T16:00:33.898Z,11.43
2023-04-16T16:03:01.815Z,11.53
2023-04-16T16:05:29.738Z,10.43
2023-04-16T16:07:58.989Z,10.90
2023-04-16T16:10:28.174Z,10.33
2023-04-16T16:12:57.178Z,10.17
2023-04-16T16:15:25.096Z,9.67
2023-04-16T16:17:53.431Z,11.30
2023-04-16T16:20:22.603Z,11.50
2023-04-16T16:22:52.985Z,10.03
2023-04-16T16:25:21.406Z,12.17
2023-04-16T16:27:50.778Z,14.53
2023-04-16T16:30:18.557Z,10.83
2023-04-16T16:32:46.410Z,11.07
2023-04-16T16:35:14.421Z,13.30
2023-04-16T16:37:42.318Z,14.90
2023-04-16T16:40:11.098Z,12.97
2023-04-16T16:42:38.930Z,10.57
2023-04-16T16:45:09.335Z,10.47
2023-04-16T16:47:38.384Z,12.77
2023-04-16T16:50:07.412Z,9.83
2023-04-16T16:52:35.245Z,12.30
2023-04-16T16:55:03.132Z,11.00
2023-04-16T16:57:33.820Z,8.77
2023-04-16T17:00:01.659Z,8.80
2023-04-16T17:02:31.056Z,9.60
2023-04-16T17:04:59.084Z,10.40
2023-04-16T17:07:27.350Z,9.30
2023-04-16T17:09:55.207Z,10.77
2023-04-16T17:12:23.551Z,11.93
2023-04-16T17:14:51.776Z,12.57
2023-04-16T17:17:19.856Z,11.77
2023-04-16T17:19:49.076Z,11.17
2023-04-16T17:22:17.111Z,10.40
2023-04-16T17:24:44.951Z,12.43
2023-04-16T17:27:12.759Z,11.33
2023-04-16T17:29:40.562Z,12.35
2023-04-16T17:32:08.313Z,10.83
2023-04-16T17:34:36.137Z,12.70
2023-04-16T17:37:05.377Z,9.00
2023-04-16T17:39:33.121Z,10.13
2023-04-16T17:42:02.984Z,11.93
2023-04-16T17:44:30.973Z,11.70
2023-04-16T17:46:58.759Z,10.87
2023-04-16T17:49:26.634Z,10.63
2023-04-16T17:51:55.095Z,10.33
2023-04-16T17:54:24.175Z,10.40
2023-04-16T17:56:51.898Z,12.03
2023-04-16T17:59:19.644Z,11.07
2023-04-16T18:01:49.495Z,10.73
2023-04-16T18:04:17.836Z,12.40
2023-04-16T18:06:46.044Z,10.20
2023-04-16T18:09:14.318Z,12.57
2023-04-16T18:11:43.431Z,9.33
2023-04-16T18:14:27.127Z,10.90
2023-04-16T18:17:13.107Z,10.57
2023-04-16T18:19:47.200Z,9.43
2023-04-16T18:22:14.970Z,12.67
2023-04-16T18:24:42.711Z,12.43
2023-04-16T18:27:12.506Z,10.07
2023-04-16T18:29:40.737Z,10.93
2023-04-16T18:32:11.770Z,15.60
2023-04-16T18:34:40.068Z,11.67
2023-04-16T18:37:08.106Z,12.43
2023-04-16T18:39:36.385Z,13.30
2023-04-16T18:42:04.611Z,10.43
2023-04-16T18:44:33.862Z,12.33
2023-04-16T18:47:01.756Z,12.30
2023-04-16T18:49:29.715Z,12.60
2023-04-16T18:51:57.509Z,11.73
2023-04-16T18:54:25.283Z,11.73
2023-04-16T18:56:52.991Z,11.63
2023-04-16T18:59:21.114Z,14.17
2023-04-16T19:01:50.766Z,16.00
2023-04-16T19:04:18.548Z,12.20
2023-04-16T19:06:48.207Z,11.97
2023-04-16T19:09:16.791Z,12.47
2023-04-16T19:11:45.017Z,13.77
2023-04-16T19:14:12.770Z,14.13
2023-04-16T19:16:41.607Z,13.33
2023-04-16T19:19:11.239Z,13.63
2023-04-16T19:21:39.228Z,13.87
2023-04-16T19:24:10.217Z,15.83
2023-04-16T19:26:40.375Z,11.57
2023-04-16T19:29:08.448Z,18.90
2023-04-16T19:31:36.213Z,13.37
2023-04-16T19:34:07.490Z,16.93
2023-04-16T19:36:36.882Z,11.97
2023-04-16T19:39:05.064Z,15.23
2023-04-16T19:41:33.136Z,13.87
2023-04-16T19:44:00.984Z,18.93
2023-04-16T19:46:29.061Z,14.93
2023-04-16T19:48:56.844Z,14.33
2023-04-16T19:51:28.500Z,12.67
2023-04-16T19:54:07.972Z,13.83
2023-04-16T19:56:38.746Z,14.63
2023-04-16T19:59:06.878Z,15.73
2023-04-16T20:01:39.544Z,16.03
2023-04-16T20:04:08.141Z,14.23
2023-04-16T20:06:36.024Z,13.27
2023-04-16T20:09:05.688Z,17.57
2023-04-16T20:11:36.668Z,14.67
2023-04-16T20:14:04.380Z,13.20
2023-04-16T20:16:44.852Z,13.33
2023-04-16T20:19:17.146Z,15.20
2023-04-16T20:21:45.477Z,13.27
2023-04-16T20:24:17.315Z,14.30
2023-04-16T20:26:45.171Z,15.33
2023-04-16T20:29:27.235Z,13.80
2023-04-16T20:31:57.859Z,14.07
2023-04-16T20:34:26.673Z,17.37
2023-04-16T20:36:58.005Z,12.10
2023-04-16T20:39:37.657Z,15.17
2023-04-16T20:42:10.124Z,13.63
2023-04-16T20:44:43.698Z,15.07
2023-04-16T20:47:15.954Z,14.70
2023-04-16T20:49:46.415Z,16.40
2023-04-16T20:52:17.714Z,16.80
2023-04-16T20:54:54.157Z,18.50
2023-04-16T20:57:23.506Z,14.23
2023-04-16T20:59:51.434Z,11.17
2023-04-16T21:02:20.140Z,14.33
2023-04-16T21:04:48.429Z,12.13
2023-04-16T21:07:16.686Z,16.20
2023-04-16T21:09:44.618Z,13.20
2023-04-16T21:12:13.737Z,12.40
2023-04-16T21:14:41.520Z,14.07
2023-04-16T21:17:09.382Z,15.10
2023-04-16T21:19:37.192Z,15.27
2023-04-16T21:22:04.992Z,15.30
2023-04-16T21:24:33.153Z,12.70
2023-04-16T21:27:01.696Z,13.80
2023-04-16T21:29:31.421Z,14.30
2023-04-16T21:31:59.368Z,14.07
2023-04-16T21:34:27.315Z,13.30
2023-04-16T21:36:55.090Z,13.43
2023-04-16T21:39:24.440Z,15.97
2023-04-16T21:41:54.328Z,13.02
2023-04-16T21:44:24.924Z,13.73
2023-04-16T21:46:54.165Z,15.87
2023-04-16T21:49:21.989Z,15.73
2023-04-16T21:51:50.162Z,15.77
2023-04-16T21:54:20.428Z,14.97
2023-04-16T21:56:48.367Z,14.47
2023-04-16T21:59:16.050Z,13.70
2023-04-16T22:01:43.921Z,14.03
2023-04-16T22:04:13.127Z,12.90
2023-04-16T22:06:41.051Z,11.67
2023-04-16T22:09:09.559Z,12.17
2023-04-16T22:11:38.225Z,15.40
2023-04-16T22:14:08.761Z,14.67
2023-04-16T22:16:36.957Z,13.67
2023-04-16T22:19:04.760Z,15.40
2023-04-16T22:21:33.894Z,15.30
2023-04-16T22:24:01.647Z,18.47
2023-04-16T22:26:29.696Z,15.60
2023-04-16T22:28:57.533Z,19.20
2023-04-16T22:31:25.282Z,14.13
2023-04-16T22:33:53.205Z,15.93
2023-04-16T22:36:21.102Z,16.53
2023-04-16T22:38:50.277Z,19.17
2023-04-16T22:41:18.079Z,16.00
2023-04-16T22:43:50.090Z,16.77
2023-04-16T22:46:22.352Z,14.83
2023-04-16T22:48:51.153Z,13.50
2023-04-16T22:51:19.023Z,15.80
2023-04-16T22:53:46.774Z,17.17
2023-04-16T22:56:15.900Z,21.33
2023-04-16T22:58:43.743Z,15.13
2023-04-16T23:01:11.920Z,16.20
2023-04-16T23:03:39.989Z,13.83
2023-04-16T23:06:08.012Z,17.40
2023-04-16T23:08:35.914Z,12.90
2023-04-16T23:11:03.727Z,16.40
2023-04-16T23:13:32.851Z,14.97
2023-04-16T23:16:00.694Z,17.07
2023-04-16T23:18:28.435Z,15.03
2023-04-16T23:20:56.193Z,14.40
2023-04-16T23:23:23.891Z,16.70
2023-04-16T23:25:53.489Z,12.33
2023-04-16T23:28:21.497Z,16.77
2023-04-16T23:30:53.649Z,14.37
2023-04-16T23:33:21.702Z,12.73
2023-04-16T23:35:49.450Z,16.47
2023-04-16T23:38:17.135Z,18.10
2023-04-16T23:40:45.022Z,13.50
2023-04-16T23:43:13.057Z,16.77
2023-04-16T23:45:40.876Z,15.20
2023-04-16T23:48:10.545Z,13.70
2023-04-16T23:50:38.278Z,18.57
2023-04-16T23:53:06.124Z,14.17
2023-04-16T23:55:33.951Z,22.27
2023-04-16T23:58:01.652Z,18.97
